createdAt,value
2019-06-26T00:00:51.271Z,36.03
2019-06-26T00:03:20.156Z,31.70
2019-06-26T00:05:50.787Z,26.87
2019-06-26T00:08:20.689Z,27.50
2019-06-26T00:10:49.696Z,33.43
2019-06-26T00:13:26.254Z,27.83
2019-06-26T00:15:52.942Z,37.00
2019-06-26T00:18:21.895Z,30.50
2019-06-26T00:20:50.889Z,37.07
2019-06-26T00:23:19.986Z,34.57
2019-06-26T00:25:48.977Z,32.77
2019-06-26T00:28:17.868Z,28.80
2019-06-26T00:30:46.762Z,31.83
2019-06-26T00:33:15.765Z,35.97
2019-06-26T00:35:44.746Z,33.73
2019-06-26T00:38:13.750Z,33.53
2019-06-26T00:40:42.730Z,27.83
2019-06-26T00:43:11.723Z,29.60
2019-06-26T00:45:40.818Z,25.80
2019-06-26T00:48:09.811Z,30.10
2019-06-26T00:50:38.805Z,28.53
2019-06-26T00:53:07.808Z,23.20
2019-06-26T00:55:36.689Z,25.83
2019-06-26T00:58:05.486Z,19.50
2019-06-26T01:00:44.090Z,22.30
2019-06-26T01:03:12.826Z,24.43
2019-06-26T01:05:41.614Z,24.97
2019-06-26T01:08:10.451Z,25.53
2019-06-26T01:10:39.308Z,23.77
2019-06-26T01:13:08.090Z,21.50
2019-06-26T01:15:36.916Z,22.37
2019-06-26T01:18:05.811Z,30.60
2019-06-26T01:20:34.708Z,28.03
2019-06-26T01:23:03.702Z,22.97
2019-06-26T01:25:32.693Z,27.70
2019-06-26T01:28:01.586Z,26.97
2019-06-26T01:30:30.583Z,29.60
2019-06-26T01:32:59.471Z,26.60
2019-06-26T01:35:28.463Z,29.90
2019-06-26T01:37:57.355Z,31.07
2019-06-26T01:40:26.355Z,27.13
2019-06-26T01:42:55.340Z,34.03
2019-06-26T01:45:24.333Z,23.73
2019-06-26T01:47:53.429Z,26.23
2019-06-26T01:50:22.522Z,22.43
2019-06-26T01:52:51.616Z,22.30
2019-06-26T01:55:20.619Z,24.07
2019-06-26T01:57:49.603Z,22.03
2019-06-26T02:00:19.095Z,20.47
2019-06-26T02:02:48.005Z,25.27
2019-06-26T02:05:17.092Z,20.77
2019-06-26T02:07:45.984Z,24.50
2019-06-26T02:10:15.182Z,23.63
2019-06-26T02:12:44.181Z,17.47
2019-06-26T02:15:13.566Z,23.10
2019-06-26T02:17:42.571Z,24.43
2019-06-26T02:20:11.853Z,22.13
2019-06-26T02:22:40.867Z,27.80
2019-06-26T02:25:09.855Z,22.03
2019-06-26T02:27:38.746Z,22.80
2019-06-26T02:30:08.718Z,20.47
2019-06-26T02:32:37.857Z,18.67
2019-06-26T02:35:09.816Z,23.13
2019-06-26T02:37:38.409Z,18.03
2019-06-26T02:40:07.576Z,18.10
2019-06-26T02:42:36.595Z,23.70
2019-06-26T02:45:08.540Z,23.60
2019-06-26T02:47:38.886Z,20.03
2019-06-26T02:50:08.375Z,23.67
2019-06-26T02:52:37.481Z,24.23
2019-06-26T02:55:06.738Z,21.57
2019-06-26T02:57:35.660Z,25.63
2019-06-26T03:00:05.630Z,25.20
2019-06-26T03:02:34.585Z,19.83
2019-06-26T03:05:03.987Z,26.03
2019-06-26T03:07:33.284Z,25.67
2019-06-26T03:10:02.182Z,19.83
2019-06-26T03:12:31.271Z,21.30
2019-06-26T03:15:08.933Z,21.93
2019-06-26T03:17:30.799Z,22.47
2019-06-26T03:19:59.897Z,16.90
2019-06-26T03:22:30.000Z,19.07
2019-06-26T03:24:59.106Z,19.47
2019-06-26T03:27:28.093Z,19.30
2019-06-26T03:29:57.087Z,17.47
2019-06-26T03:32:26.082Z,19.83
2019-06-26T03:34:55.076Z,19.67
2019-06-26T03:37:23.963Z,17.67
2019-06-26T03:39:52.955Z,20.10
2019-06-26T03:42:21.718Z,18.80
2019-06-26T03:44:50.746Z,20.77
2019-06-26T03:47:19.730Z,21.77
2019-06-26T03:49:48.722Z,20.10
2019-06-26T03:52:17.538Z,18.50
2019-06-26T03:54:46.344Z,19.23
2019-06-26T03:57:15.126Z,17.40
2019-06-26T03:59:43.942Z,15.33
2019-06-26T04:02:12.826Z,17.57
2019-06-26T04:04:41.615Z,19.13
2019-06-26T04:07:10.446Z,17.67
2019-06-26T04:09:39.436Z,22.20
2019-06-26T04:12:08.364Z,31.63
2019-06-26T04:14:37.322Z,15.83
2019-06-26T04:17:06.313Z,16.53
2019-06-26T04:19:35.307Z,20.90
2019-06-26T04:22:04.299Z,18.77
2019-06-26T04:24:33.298Z,17.30
2019-06-26T04:27:02.183Z,16.07
2019-06-26T04:29:31.177Z,17.20
2019-06-26T04:32:00.070Z,22.10
2019-06-26T04:34:29.167Z,15.53
2019-06-26T04:36:58.174Z,17.30
2019-06-26T04:39:27.152Z,23.77
2019-06-26T04:41:56.042Z,20.00
2019-06-26T04:44:25.034Z,17.00
2019-06-26T04:46:54.025Z,17.00
2019-06-26T04:49:23.224Z,14.67
2019-06-26T04:51:52.327Z,15.70
2019-06-26T04:54:21.311Z,15.43
2019-06-26T04:56:50.313Z,14.90
2019-06-26T04:59:19.399Z,16.17
2019-06-26T05:01:48.496Z,17.63
2019-06-26T05:04:17.494Z,16.40
2019-06-26T05:06:46.483Z,15.17
2019-06-26T05:09:15.375Z,14.93
2019-06-26T05:11:44.264Z,14.33
2019-06-26T05:14:13.155Z,14.57
2019-06-26T05:16:42.046Z,13.77
2019-06-26T05:19:10.821Z,12.73
2019-06-26T05:21:39.649Z,12.77
2019-06-26T05:24:10.074Z,12.70
2019-06-26T05:26:39.039Z,11.97
2019-06-26T05:29:07.924Z,14.37
2019-06-26T05:31:37.433Z,13.43
2019-06-26T05:34:06.327Z,12.67
2019-06-26T05:36:35.198Z,13.33
2019-06-26T05:39:05.733Z,12.07
2019-06-26T05:41:34.738Z,11.60
2019-06-26T05:44:04.783Z,11.10
2019-06-26T05:46:34.937Z,12.03
2019-06-26T05:49:03.866Z,12.37
2019-06-26T05:51:33.454Z,11.67
2019-06-26T05:54:02.476Z,11.83
2019-06-26T05:56:31.462Z,11.97
2019-06-26T05:59:00.560Z,13.37
2019-06-26T06:01:29.551Z,12.63
2019-06-26T06:03:58.427Z,12.03
2019-06-26T06:06:40.590Z,12.20
2019-06-26T06:08:59.204Z,12.13
2019-06-26T06:11:28.288Z,12.73
2019-06-26T06:13:57.381Z,14.97
2019-06-26T06:16:26.273Z,19.17
2019-06-26T06:18:55.164Z,27.10
2019-06-26T06:21:24.153Z,23.47
2019-06-26T06:23:52.917Z,23.70
2019-06-26T06:26:21.935Z,40.73
2019-06-26T06:28:51.030Z,23.77
2019-06-26T06:31:20.127Z,23.33
2019-06-26T06:33:50.546Z,44.40
2019-06-26T06:36:20.738Z,24.30
2019-06-26T06:38:52.195Z,19.83
2019-06-26T06:41:26.842Z,13.17
2019-06-26T06:43:55.698Z,14.73
2019-06-26T06:46:25.247Z,17.97
2019-06-26T06:48:54.165Z,20.23
2019-06-26T06:51:23.015Z,13.37
2019-06-26T06:53:51.869Z,13.23
2019-06-26T06:56:20.779Z,16.00
2019-06-26T06:58:49.643Z,12.90
2019-06-26T07:01:18.503Z,11.83
2019-06-26T07:03:47.907Z,14.93
2019-06-26T07:06:16.762Z,17.63
2019-06-26T07:08:45.611Z,15.20
2019-06-26T07:11:14.507Z,13.07
2019-06-26T07:13:43.290Z,11.67
2019-06-26T07:16:12.158Z,12.60
2019-06-26T07:18:41.019Z,12.20
2019-06-26T07:21:09.783Z,12.37
2019-06-26T07:23:40.246Z,13.80
2019-06-26T07:26:09.076Z,10.90
2019-06-26T07:28:37.859Z,16.67
2019-06-26T07:31:06.701Z,11.20
2019-06-26T07:33:35.722Z,14.20
2019-06-26T07:36:04.618Z,11.47
2019-06-26T07:38:33.408Z,11.87
2019-06-26T07:41:02.234Z,16.93
2019-06-26T07:43:31.089Z,12.57
2019-06-26T07:45:59.899Z,11.87
2019-06-26T07:48:28.946Z,14.03
2019-06-26T07:50:57.816Z,11.97
2019-06-26T07:53:26.975Z,15.97
2019-06-26T07:55:56.332Z,10.77
2019-06-26T07:58:25.208Z,11.73
2019-06-26T08:00:54.112Z,9.03
2019-06-26T08:03:23.206Z,13.50
2019-06-26T08:05:52.201Z,11.60
2019-06-26T08:08:22.529Z,11.53
2019-06-26T08:10:51.621Z,11.80
2019-06-26T08:13:22.250Z,14.23
2019-06-26T08:15:51.248Z,11.87
2019-06-26T08:18:21.676Z,9.57
2019-06-26T08:21:10.641Z,11.00
2019-06-26T08:23:21.195Z,10.90
2019-06-26T08:25:50.213Z,10.60
2019-06-26T08:28:19.179Z,15.20
2019-06-26T08:30:48.069Z,18.53
2019-06-26T08:33:17.040Z,14.93
2019-06-26T08:35:46.057Z,20.07
2019-06-26T08:38:15.795Z,18.07
2019-06-26T08:40:45.065Z,22.63
2019-06-26T08:43:14.067Z,16.70
2019-06-26T08:45:43.053Z,18.47
2019-06-26T08:48:19.317Z,12.30
2019-06-26T08:50:42.779Z,18.93
2019-06-26T08:53:11.772Z,21.53
2019-06-26T08:55:40.867Z,20.03
2019-06-26T08:58:09.866Z,18.57
2019-06-26T09:00:39.983Z,15.70
2019-06-26T09:03:08.977Z,22.60
2019-06-26T09:05:47.830Z,17.33
2019-06-26T09:08:08.341Z,20.27
2019-06-26T09:10:37.590Z,24.47
2019-06-26T09:13:06.583Z,18.03
2019-06-26T09:15:35.576Z,16.23
2019-06-26T09:18:04.592Z,24.30
2019-06-26T09:20:40.905Z,30.93
2019-06-26T09:23:09.744Z,21.80
2019-06-26T09:25:38.531Z,15.53
2019-06-26T09:28:07.758Z,23.13
2019-06-26T09:30:36.706Z,18.80
2019-06-26T09:33:05.897Z,18.03
2019-06-26T09:35:34.669Z,17.67
2019-06-26T09:38:03.562Z,19.80
2019-06-26T09:40:32.571Z,20.60
2019-06-26T09:43:01.592Z,18.27
2019-06-26T09:45:30.640Z,20.13
2019-06-26T09:47:59.547Z,23.40
2019-06-26T09:50:29.445Z,20.27
2019-06-26T09:52:58.557Z,14.60
2019-06-26T09:55:27.551Z,29.93
2019-06-26T09:57:56.330Z,18.40
2019-06-26T10:00:26.764Z,19.67
2019-06-26T10:02:55.759Z,21.20
2019-06-26T10:05:24.753Z,21.17
2019-06-26T10:07:53.850Z,19.50
2019-06-26T10:10:22.840Z,21.70
2019-06-26T10:12:51.833Z,17.27
2019-06-26T10:15:21.139Z,21.20
2019-06-26T10:17:50.106Z,21.87
2019-06-26T10:20:20.882Z,20.97
2019-06-26T10:22:49.840Z,19.03
2019-06-26T10:25:19.358Z,14.50
2019-06-26T10:27:54.802Z,26.70
2019-06-26T10:30:25.232Z,20.27
2019-06-26T10:32:54.122Z,20.73
2019-06-26T10:35:24.521Z,21.03
2019-06-26T10:37:53.449Z,29.93
2019-06-26T10:40:22.638Z,23.73
2019-06-26T10:42:51.834Z,20.63
2019-06-26T10:45:21.002Z,19.50
2019-06-26T10:47:49.928Z,20.20
2019-06-26T10:50:18.915Z,27.00
2019-06-26T10:52:47.909Z,15.90
2019-06-26T10:55:18.741Z,27.27
2019-06-26T10:57:49.168Z,22.70
2019-06-26T11:00:20.281Z,15.73
2019-06-26T11:02:49.903Z,25.00
2019-06-26T11:05:25.058Z,21.00
2019-06-26T11:07:54.541Z,24.37
2019-06-26T11:10:23.658Z,20.77
2019-06-26T11:12:52.648Z,13.90
2019-06-26T11:15:21.745Z,25.10
2019-06-26T11:17:50.753Z,27.43
2019-06-26T11:20:19.621Z,35.40
2019-06-26T11:22:49.151Z,29.17
2019-06-26T11:25:20.984Z,26.23
2019-06-26T11:27:49.884Z,24.70
2019-06-26T11:30:21.025Z,19.60
2019-06-26T11:32:50.019Z,22.73
2019-06-26T11:35:20.549Z,13.43
2019-06-26T11:37:49.542Z,22.03
2019-06-26T11:40:20.030Z,17.27
2019-06-26T11:42:49.063Z,20.03
2019-06-26T11:45:18.366Z,25.43
2019-06-26T11:47:47.403Z,25.90
2019-06-26T11:50:17.578Z,26.97
2019-06-26T11:52:46.468Z,17.20
2019-06-26T11:55:16.063Z,20.37
2019-06-26T11:57:45.260Z,28.27
2019-06-26T12:00:17.236Z,20.27
2019-06-26T12:02:46.232Z,25.40
2019-06-26T12:05:15.338Z,19.37
2019-06-26T12:07:44.216Z,27.93
2019-06-26T12:10:14.928Z,20.17
2019-06-26T12:12:43.949Z,17.50
2019-06-26T12:15:13.339Z,20.77
2019-06-26T12:17:42.338Z,15.87
2019-06-26T12:20:19.122Z,19.87
2019-06-26T12:22:43.498Z,20.33
2019-06-26T12:25:12.504Z,16.53
2019-06-26T12:27:41.384Z,22.63
2019-06-26T12:30:11.165Z,18.87
2019-06-26T12:32:42.588Z,20.87
2019-06-26T12:35:11.132Z,24.23
2019-06-26T12:37:40.146Z,18.63
2019-06-26T12:40:09.396Z,28.30
2019-06-26T12:42:38.414Z,22.17
2019-06-26T12:45:07.894Z,25.60
2019-06-26T12:47:36.831Z,24.90
2019-06-26T12:50:07.079Z,28.37
2019-06-26T12:52:36.204Z,35.03
2019-06-26T12:55:06.964Z,25.50
2019-06-26T12:57:35.956Z,34.40
2019-06-26T13:00:07.897Z,26.90
2019-06-26T13:02:38.959Z,38.50
2019-06-26T13:05:09.794Z,21.17
2019-06-26T13:07:38.787Z,24.00
2019-06-26T13:10:09.090Z,27.50
2019-06-26T13:12:38.090Z,21.10
2019-06-26T13:15:08.333Z,34.40
2019-06-26T13:17:37.462Z,31.03
2019-06-26T13:20:10.657Z,37.17
2019-06-26T13:22:39.765Z,35.23
2019-06-26T13:25:08.881Z,38.27
2019-06-26T13:27:38.003Z,42.40
2019-06-26T13:30:10.995Z,37.43
2019-06-26T13:32:39.875Z,32.17
2019-06-26T13:35:09.072Z,36.60
2019-06-26T13:37:38.065Z,20.13
2019-06-26T13:40:08.597Z,26.00
2019-06-26T13:42:37.487Z,24.80
2019-06-26T13:45:09.525Z,26.03
2019-06-26T13:47:38.645Z,26.70
2019-06-26T13:50:08.270Z,30.73
2019-06-26T13:52:37.144Z,38.60
2019-06-26T13:55:06.634Z,27.63
2019-06-26T13:57:35.749Z,21.67
2019-06-26T14:00:07.240Z,26.33
2019-06-26T14:02:36.391Z,27.57
2019-06-26T14:05:09.788Z,30.33
2019-06-26T14:07:40.099Z,37.37
2019-06-26T14:10:09.844Z,27.73
2019-06-26T14:12:39.513Z,26.60
2019-06-26T14:15:08.814Z,27.40
2019-06-26T14:17:37.826Z,18.40
2019-06-26T14:20:07.571Z,39.70
2019-06-26T14:22:36.530Z,41.80
2019-06-26T14:25:09.619Z,32.80
2019-06-26T14:27:38.927Z,33.40
2019-06-26T14:30:08.610Z,21.77
2019-06-26T14:32:38.950Z,27.43
2019-06-26T14:35:08.335Z,23.33
2019-06-26T14:37:37.231Z,23.70
2019-06-26T14:40:10.411Z,25.63
2019-06-26T14:42:39.430Z,20.93
2019-06-26T14:45:13.439Z,24.67
2019-06-26T14:47:43.148Z,25.37
2019-06-26T14:50:12.325Z,26.87
2019-06-26T14:52:41.237Z,37.23
2019-06-26T14:55:10.355Z,27.33
2019-06-26T14:57:39.425Z,36.00
2019-06-26T15:00:09.066Z,20.80
2019-06-26T15:02:38.027Z,24.47
2019-06-26T15:05:10.277Z,33.10
2019-06-26T15:07:39.272Z,32.40
2019-06-26T15:10:09.002Z,41.50
2019-06-26T15:12:38.006Z,38.10
2019-06-26T15:15:07.248Z,40.90
2019-06-26T15:17:37.616Z,35.47
2019-06-26T15:20:07.940Z,51.70
2019-06-26T15:22:36.839Z,39.50
2019-06-26T15:25:07.135Z,30.50
2019-06-26T15:27:37.377Z,32.27
2019-06-26T15:30:09.419Z,31.80
2019-06-26T15:32:38.537Z,38.00
2019-06-26T15:35:13.776Z,37.83
2019-06-26T15:37:44.735Z,26.40
2019-06-26T15:40:14.020Z,39.97
2019-06-26T15:42:48.854Z,39.93
2019-06-26T15:45:20.413Z,43.47
2019-06-26T15:47:47.753Z,69.17
2019-06-26T15:50:16.933Z,42.50
2019-06-26T15:52:45.942Z,42.70
2019-06-26T15:55:14.936Z,32.87
2019-06-26T15:57:44.036Z,47.00
2019-06-26T16:00:13.540Z,37.97
2019-06-26T16:02:42.532Z,37.90
2019-06-26T16:05:11.822Z,48.53
2019-06-26T16:07:40.810Z,36.40
2019-06-26T16:10:10.331Z,34.43
2019-06-26T16:12:40.954Z,36.47
2019-06-26T16:15:11.214Z,40.93
2019-06-26T16:17:47.855Z,46.07
2019-06-26T16:20:17.036Z,35.67
2019-06-26T16:22:45.943Z,29.50
2019-06-26T16:25:15.042Z,39.97
2019-06-26T16:27:44.032Z,56.77
2019-06-26T16:30:13.926Z,43.93
2019-06-26T16:32:42.842Z,41.53
2019-06-26T16:35:12.443Z,65.77
2019-06-26T16:37:41.744Z,46.50
2019-06-26T16:40:12.169Z,63.47
2019-06-26T16:42:42.508Z,45.33
2019-06-26T16:45:11.676Z,47.93
2019-06-26T16:47:40.592Z,39.47
2019-06-26T16:50:10.805Z,41.60
2019-06-26T16:52:49.222Z,43.43
2019-06-26T16:55:10.535Z,35.27
2019-06-26T16:57:39.540Z,37.00
2019-06-26T17:00:10.415Z,44.67
2019-06-26T17:02:40.889Z,43.60
2019-06-26T17:05:10.939Z,58.13
2019-06-26T17:07:39.999Z,47.50
2019-06-26T17:10:09.934Z,48.93
2019-06-26T17:12:41.802Z,58.83
2019-06-26T17:15:11.777Z,35.40
2019-06-26T17:17:41.997Z,42.57
2019-06-26T17:20:14.375Z,31.87
2019-06-26T17:22:43.230Z,48.13
2019-06-26T17:25:13.872Z,29.83
2019-06-26T17:27:45.266Z,41.77
2019-06-26T17:30:15.568Z,36.87
2019-06-26T17:32:44.429Z,37.50
2019-06-26T17:35:15.194Z,42.73
2019-06-26T17:37:44.197Z,45.33
2019-06-26T17:40:14.606Z,33.90
2019-06-26T17:42:48.540Z,26.77
2019-06-26T17:45:19.981Z,36.77
2019-06-26T17:47:48.975Z,37.40
2019-06-26T17:50:18.640Z,45.07
2019-06-26T17:52:47.972Z,38.43
2019-06-26T17:55:16.961Z,34.03
2019-06-26T17:57:47.581Z,27.90
2019-06-26T18:00:19.457Z,27.17
2019-06-26T18:02:48.464Z,28.70
2019-06-26T18:05:17.355Z,30.30
2019-06-26T18:07:47.371Z,29.40
2019-06-26T18:10:16.286Z,27.63
2019-06-26T18:12:45.256Z,38.13
2019-06-26T18:15:14.890Z,46.23
2019-06-26T18:17:43.955Z,24.97
2019-06-26T18:20:13.247Z,40.97
2019-06-26T18:22:42.231Z,30.83
2019-06-26T18:25:11.449Z,32.90
2019-06-26T18:27:40.438Z,28.47
2019-06-26T18:30:13.818Z,25.50
2019-06-26T18:32:45.679Z,25.33
2019-06-26T18:35:17.106Z,32.43
2019-06-26T18:37:51.861Z,32.23
2019-06-26T18:40:22.385Z,27.67
2019-06-26T18:42:52.317Z,34.97
2019-06-26T18:45:22.455Z,33.80
2019-06-26T18:47:51.531Z,34.50
2019-06-26T18:50:22.676Z,21.83
2019-06-26T18:52:51.771Z,25.87
2019-06-26T18:55:20.766Z,30.27
2019-06-26T18:57:49.755Z,25.83
2019-06-26T19:00:19.048Z,28.47
2019-06-26T19:02:47.827Z,23.07
2019-06-26T19:05:17.031Z,27.20
2019-06-26T19:07:46.036Z,19.53
2019-06-26T19:10:15.028Z,25.97
2019-06-26T19:12:44.023Z,28.47
2019-06-26T19:15:13.321Z,39.43
2019-06-26T19:17:43.727Z,21.97
2019-06-26T19:20:13.891Z,21.17
2019-06-26T19:22:43.168Z,23.50
2019-06-26T19:25:14.126Z,24.27
2019-06-26T19:27:44.533Z,30.70
2019-06-26T19:30:14.038Z,24.87
2019-06-26T19:32:44.565Z,22.63
2019-06-26T19:35:20.843Z,25.17
2019-06-26T19:37:44.394Z,24.03
2019-06-26T19:40:13.785Z,25.67
2019-06-26T19:42:42.790Z,23.80
2019-06-26T19:45:14.879Z,29.93
2019-06-26T19:47:43.953Z,23.50
2019-06-26T19:50:15.199Z,31.67
2019-06-26T19:52:45.546Z,20.13
2019-06-26T19:55:14.997Z,27.77
2019-06-26T19:57:44.021Z,24.83
2019-06-26T20:00:14.005Z,29.67
2019-06-26T20:02:44.339Z,25.97
2019-06-26T20:05:14.447Z,24.33
2019-06-26T20:07:51.113Z,19.57
2019-06-26T20:10:19.964Z,24.80
2019-06-26T20:12:48.831Z,24.07
2019-06-26T20:15:17.834Z,24.40
2019-06-26T20:17:46.814Z,23.13
2019-06-26T20:20:15.706Z,27.43
2019-06-26T20:22:44.698Z,18.47
2019-06-26T20:25:13.794Z,20.90
2019-06-26T20:27:45.859Z,23.17
2019-06-26T20:30:15.364Z,17.90
2019-06-26T20:32:51.422Z,35.33
2019-06-26T20:35:20.312Z,32.33
2019-06-26T20:37:49.320Z,20.53
2019-06-26T20:40:18.810Z,32.50
2019-06-26T20:42:47.832Z,16.73
2019-06-26T20:45:17.014Z,28.63
2019-06-26T20:47:48.144Z,32.13
2019-06-26T20:50:17.239Z,31.67
2019-06-26T20:52:46.234Z,20.77
2019-06-26T20:55:15.315Z,29.30
2019-06-26T20:57:44.327Z,25.63
2019-06-26T21:00:14.830Z,21.87
2019-06-26T21:02:43.845Z,21.23
2019-06-26T21:05:13.588Z,15.97
2019-06-26T21:07:42.648Z,33.07
2019-06-26T21:10:12.563Z,21.60
2019-06-26T21:12:44.627Z,20.60
2019-06-26T21:15:13.620Z,26.17
2019-06-26T21:17:44.148Z,26.67
2019-06-26T21:20:13.726Z,30.77
2019-06-26T21:22:45.521Z,25.27
2019-06-26T21:25:18.853Z,20.77
2019-06-26T21:27:46.075Z,17.03
2019-06-26T21:30:15.368Z,24.30
2019-06-26T21:32:44.353Z,16.43
2019-06-26T21:35:13.453Z,33.40
2019-06-26T21:37:42.448Z,21.87
2019-06-26T21:40:11.535Z,24.33
2019-06-26T21:42:41.654Z,20.23
2019-06-26T21:45:10.648Z,18.87
2019-06-26T21:47:39.462Z,22.60
2019-06-26T21:50:08.492Z,25.60
2019-06-26T21:52:37.249Z,11.93
2019-06-26T21:55:06.704Z,24.57
2019-06-26T21:57:35.578Z,26.97
2019-06-26T22:00:06.905Z,18.77
2019-06-26T22:02:35.661Z,29.37
2019-06-26T22:05:06.415Z,21.63
2019-06-26T22:07:35.173Z,23.83
2019-06-26T22:10:06.145Z,23.40
2019-06-26T22:12:35.061Z,17.30
2019-06-26T22:15:04.324Z,24.93
2019-06-26T22:17:33.101Z,25.93
2019-06-26T22:20:01.937Z,15.07
2019-06-26T22:22:30.666Z,27.20
2019-06-26T22:24:59.426Z,19.20
2019-06-26T22:27:28.233Z,18.23
2019-06-26T22:29:56.982Z,23.43
2019-06-26T22:32:25.910Z,16.87
2019-06-26T22:34:54.673Z,19.37
2019-06-26T22:37:23.441Z,19.20
2019-06-26T22:39:52.380Z,26.30
2019-06-26T22:42:21.268Z,24.80
2019-06-26T22:44:50.078Z,18.27
2019-06-26T22:47:18.801Z,26.93
2019-06-26T22:49:47.594Z,21.07
2019-06-26T22:52:16.357Z,22.37
2019-06-26T22:54:45.112Z,20.03
2019-06-26T22:57:14.771Z,21.60
2019-06-26T22:59:43.531Z,17.93
2019-06-26T23:02:12.296Z,22.03
2019-06-26T23:04:41.101Z,21.23
2019-06-26T23:07:09.865Z,21.37
2019-06-26T23:09:38.733Z,25.63
2019-06-26T23:12:07.535Z,16.53
2019-06-26T23:14:36.370Z,24.60
2019-06-26T23:17:05.131Z,21.73
2019-06-26T23:19:33.956Z,18.63
2019-06-26T23:22:02.708Z,19.30
2019-06-26T23:24:31.465Z,17.57
2019-06-26T23:27:00.284Z,11.50
2019-06-26T23:29:29.040Z,24.37
2019-06-26T23:31:57.809Z,17.43
2019-06-26T23:34:26.616Z,16.13
2019-06-26T23:36:55.502Z,16.00
2019-06-26T23:39:24.266Z,13.47
2019-06-26T23:41:53.066Z,12.90
2019-06-26T23:44:21.834Z,20.47
2019-06-26T23:46:50.603Z,12.70
2019-06-26T23:49:19.406Z,20.07
2019-06-26T23:51:48.158Z,13.70
2019-06-26T23:54:16.926Z,14.63
2019-06-26T23:56:45.653Z,13.93
2019-06-26T23:59:14.418Z,13.03
